Time;durP1;ratioP1;P1;durP2;ratioP2;P2;SDS_P1;SDS_P2;PMS_P1;PMS_P2;Temp;Humidity;BMP_temperature;BMP_pressure;BME280_temperature;BME280_humidity;BME280_pressure;Samples;Min_cycle;Max_cycle;Signal;HPM_P1;HPM_P2
2022/05/01 00:00:51;;;;;;;11.68;5.10;;;;;;;;;;5020640;28;20081;-65
2022/05/01 00:03:34;;;;;;;5.40;4.07;;;;;;;;;;5017064;28;20099;-65
2022/05/01 00:06:00;;;;;;;5.43;4.10;;;;;;;;;;5016247;28;20108;-64
2022/05/01 00:08:27;;;;;;;6.05;4.68;;;;;;;;;;5002078;28;20053;-64
2022/05/01 00:10:53;;;;;;;6.80;3.67;;;;;;;;;;5017029;28;21092;-65
2022/05/01 00:13:21;;;;;;;8.05;4.88;;;;;;;;;;5017053;28;20051;-65
2022/05/01 00:15:47;;;;;;;6.43;4.10;;;;;;;;;;5013813;28;20038;-65
2022/05/01 00:18:13;;;;;;;5.40;3.90;;;;;;;;;;5001360;28;20092;-64
2022/05/01 00:20:40;;;;;;;5.35;3.42;;;;;;;;;;5007184;28;20469;-64
2022/05/01 00:23:06;;;;;;;7.38;3.42;;;;;;;;;;5007173;28;20042;-64
2022/05/01 00:25:32;;;;;;;5.15;3.53;;;;;;;;;;5018999;28;20049;-65
2022/05/01 00:27:59;;;;;;;6.32;4.28;;;;;;;;;;5006859;28;20057;-65
2022/05/01 00:30:26;;;;;;;6.38;4.05;;;;;;;;;;5016248;28;20132;-65
2022/05/01 00:38:24;;;;;;;6.57;4.75;;;;;;;;;;5018839;28;20045;-64
2022/05/01 00:40:51;;;;;;;5.55;4.10;;;;;;;;;;5009214;28;20057;-65
2022/05/01 00:43:17;;;;;;;7.85;5.40;;;;;;;;;;5018883;28;20068;-64
2022/05/01 00:45:43;;;;;;;6.43;4.22;;;;;;;;;;5014782;28;20046;-64
2022/05/01 00:48:09;;;;;;;9.98;3.58;;;;;;;;;;4999925;28;20066;-64
2022/05/01 00:50:36;;;;;;;6.45;4.28;;;;;;;;;;5019187;28;20100;-65
2022/05/01 00:53:05;;;;;;;6.07;4.30;;;;;;;;;;5005516;28;20081;-65
2022/05/01 00:55:32;;;;;;;8.80;3.10;;;;;;;;;;5011944;28;20489;-64
2022/05/01 00:57:58;;;;;;;4.60;3.28;;;;;;;;;;4994206;28;20049;-64
2022/05/01 01:00:24;;;;;;;4.60;3.47;;;;;;;;;;5013884;28;20053;-65
2022/05/01 01:02:50;;;;;;;3.85;2.50;;;;;;;;;;5014197;28;20042;-65
2022/05/01 01:05:17;;;;;;;3.40;2.47;;;;;;;;;;5007310;28;20455;-65
2022/05/01 01:07:43;;;;;;;3.40;2.40;;;;;;;;;;5011823;28;20042;-65
2022/05/01 01:10:10;;;;;;;2.90;2.10;;;;;;;;;;5008980;28;20037;-65
2022/05/01 01:12:55;;;;;;;4.25;2.05;;;;;;;;;;5007737;28;20426;-65
2022/05/01 01:15:22;;;;;;;4.13;2.30;;;;;;;;;;5006822;28;20087;-65
2022/05/01 01:17:52;;;;;;;4.10;3.10;;;;;;;;;;5014616;28;20088;-65
2022/05/01 01:20:19;;;;;;;3.42;2.35;;;;;;;;;;5013316;28;20116;-65
2022/05/01 01:22:47;;;;;;;3.13;2.17;;;;;;;;;;5020036;28;20045;-65
2022/05/01 01:25:14;;;;;;;3.38;2.20;;;;;;;;;;5007323;28;20046;-65
2022/05/01 01:27:40;;;;;;;3.00;2.30;;;;;;;;;;5014339;28;20037;-65
2022/05/01 01:32:52;;;;;;;4.72;2.85;;;;;;;;;;5023818;28;20049;-65
2022/05/01 01:35:21;;;;;;;4.22;3.17;;;;;;;;;;5016804;28;20125;-65
2022/05/01 01:37:49;;;;;;;4.95;2.78;;;;;;;;;;5021351;28;20045;-65
2022/05/01 01:40:19;;;;;;;5.57;3.13;;;;;;;;;;5017888;28;20088;-65
2022/05/01 01:42:46;;;;;;;5.65;2.92;;;;;;;;;;5015168;28;20042;-65
2022/05/01 01:45:13;;;;;;;4.32;3.03;;;;;;;;;;4999356;28;20073;-65
2022/05/01 01:47:40;;;;;;;4.65;3.17;;;;;;;;;;5020845;28;20152;-65
2022/05/01 01:50:06;;;;;;;5.68;3.70;;;;;;;;;;5019171;28;20030;-65
2022/05/01 01:52:34;;;;;;;6.43;3.78;;;;;;;;;;5006642;28;20128;-65
2022/05/01 01:55:00;;;;;;;10.35;5.53;;;;;;;;;;5009384;28;20426;-65
2022/05/01 01:57:27;;;;;;;14.18;8.25;;;;;;;;;;5016358;28;20154;-64
2022/05/01 01:59:53;;;;;;;12.38;7.72;;;;;;;;;;5015578;28;20041;-65
2022/05/01 02:02:19;;;;;;;11.65;8.57;;;;;;;;;;5010398;28;20386;-65
2022/05/01 02:04:45;;;;;;;24.40;8.85;;;;;;;;;;4997260;28;20060;-65
2022/05/01 02:07:12;;;;;;;6.32;4.70;;;;;;;;;;5021731;28;20042;-65
2022/05/01 02:09:38;;;;;;;7.72;4.97;;;;;;;;;;5017042;28;20081;-65
2022/05/01 02:12:08;;;;;;;12.55;6.55;;;;;;;;;;5022453;28;20080;-65
2022/05/01 02:14:34;;;;;;;108.05;11.57;;;;;;;;;;5013101;28;20042;-65
2022/05/01 02:17:02;;;;;;;55.42;9.63;;;;;;;;;;5017113;28;20061;-65
2022/05/01 02:19:29;;;;;;;11.55;8.52;;;;;;;;;;5011563;28;20498;-65
2022/05/01 02:21:55;;;;;;;19.83;8.13;;;;;;;;;;5012900;28;20478;-65
2022/05/01 02:24:23;;;;;;;9.20;6.47;;;;;;;;;;4994830;28;20049;-65
2022/05/01 02:26:50;;;;;;;27.00;7.78;;;;;;;;;;5019275;28;20068;-64
2022/05/01 02:29:16;;;;;;;14.73;7.07;;;;;;;;;;5016891;28;20064;-65
2022/05/01 02:31:43;;;;;;;10.70;6.78;;;;;;;;;;5012391;28;20485;-64
2022/05/01 02:34:10;;;;;;;10.07;7.05;;;;;;;;;;5011948;28;20116;-64
2022/05/01 02:36:37;;;;;;;6.70;5.10;;;;;;;;;;5021407;28;20037;-65
2022/05/01 02:39:04;;;;;;;8.77;5.55;;;;;;;;;;5019940;28;20048;-65
2022/05/01 02:41:31;;;;;;;17.85;6.97;;;;;;;;;;5012627;28;20128;-64
2022/05/01 02:43:58;;;;;;;104.78;9.85;;;;;;;;;;5016577;28;20050;-65
2022/05/01 02:46:26;;;;;;;60.80;8.25;;;;;;;;;;5017685;28;20049;-64
2022/05/01 02:48:53;;;;;;;177.13;11.45;;;;;;;;;;5021762;28;20051;-64
2022/05/01 02:51:19;;;;;;;91.20;8.95;;;;;;;;;;5009869;28;20091;-64
2022/05/01 02:53:45;;;;;;;103.40;10.52;;;;;;;;;;5008589;28;21023;-64
2022/05/01 02:56:11;;;;;;;87.55;10.30;;;;;;;;;;5000214;28;20046;-64
2022/05/01 02:58:37;;;;;;;99.38;11.25;;;;;;;;;;5015922;28;20125;-64
2022/05/01 03:01:03;;;;;;;76.97;11.60;;;;;;;;;;5015092;28;20045;-65
2022/05/01 03:03:30;;;;;;;38.30;12.35;;;;;;;;;;4996964;28;20052;-65
2022/05/01 03:05:58;;;;;;;31.23;12.43;;;;;;;;;;5009751;28;20132;-64
2022/05/01 03:08:24;;;;;;;57.45;11.13;;;;;;;;;;5022272;28;20050;-64
2022/05/01 03:10:51;;;;;;;16.95;8.95;;;;;;;;;;5012738;28;20045;-64
2022/05/01 03:13:18;;;;;;;12.38;8.50;;;;;;;;;;5022147;28;20398;-64
2022/05/01 03:15:45;;;;;;;11.80;9.38;;;;;;;;;;4997117;28;20042;-64
2022/05/01 03:23:40;;;;;;;60.13;10.25;;;;;;;;;;5015202;28;20088;-64
2022/05/01 03:26:06;;;;;;;12.80;9.43;;;;;;;;;;5018910;28;20048;-64
2022/05/01 03:28:33;;;;;;;12.82;9.35;;;;;;;;;;5008615;28;20780;-64
2022/05/01 03:30:59;;;;;;;12.82;8.00;;;;;;;;;;5021562;28;20448;-64
2022/05/01 03:33:26;;;;;;;14.35;9.23;;;;;;;;;;5015704;28;20137;-64
2022/05/01 03:35:53;;;;;;;14.70;8.63;;;;;;;;;;5015187;28;20046;-64
2022/05/01 03:38:21;;;;;;;11.77;8.07;;;;;;;;;;5013682;28;20072;-64
2022/05/01 03:40:47;;;;;;;27.27;9.75;;;;;;;;;;5019516;28;20046;-64
2022/05/01 03:43:16;;;;;;;18.13;9.85;;;;;;;;;;5019190;28;20037;-65
2022/05/01 03:45:42;;;;;;;15.80;9.52;;;;;;;;;;5016911;28;20141;-64
2022/05/01 03:48:09;;;;;;;13.95;7.80;;;;;;;;;;5008534;28;20095;-64
2022/05/01 03:50:35;;;;;;;9.40;5.45;;;;;;;;;;5014473;28;20029;-64
2022/05/01 03:53:04;;;;;;;28.33;8.32;;;;;;;;;;5018435;28;20142;-64
2022/05/01 03:55:31;;;;;;;32.22;9.68;;;;;;;;;;5021292;28;20434;-64
2022/05/01 03:57:58;;;;;;;25.60;8.98;;;;;;;;;;5017947;28;20092;-64
2022/05/01 04:00:25;;;;;;;20.63;7.85;;;;;;;;;;4993201;28;20073;-64
2022/05/01 04:02:52;;;;;;;15.07;7.15;;;;;;;;;;5020279;28;20052;-64
2022/05/01 04:05:18;;;;;;;17.80;7.00;;;;;;;;;;5006296;28;20096;-64
2022/05/01 04:07:44;;;;;;;15.25;7.50;;;;;;;;;;5007740;28;20053;-65
2022/05/01 04:10:12;;;;;;;13.57;7.28;;;;;;;;;;5011794;28;20056;-64
2022/05/01 04:12:43;;;;;;;16.65;8.13;;;;;;;;;;4992742;28;20042;-65
2022/05/01 04:15:11;;;;;;;11.93;7.70;;;;;;;;;;5020774;28;20037;-64
2022/05/01 04:17:40;;;;;;;12.48;6.30;;;;;;;;;;5011146;28;20041;-65
2022/05/01 04:20:08;;;;;;;11.70;6.30;;;;;;;;;;5022581;28;20410;-64
2022/05/01 04:22:39;;;;;;;9.60;5.28;;;;;;;;;;5013306;28;20083;-64
2022/05/01 04:25:08;;;;;;;11.15;5.13;;;;;;;;;;4995203;28;20379;-64
2022/05/01 04:27:34;;;;;;;11.95;5.55;;;;;;;;;;4992339;28;20141;-64
2022/05/01 04:30:01;;;;;;;16.13;6.82;;;;;;;;;;5014703;28;20053;-64
2022/05/01 04:32:27;;;;;;;15.75;7.07;;;;;;;;;;5005681;28;20120;-64
2022/05/01 04:34:54;;;;;;;13.48;6.13;;;;;;;;;;5020103;28;20120;-64
2022/05/01 04:37:21;;;;;;;24.30;9.88;;;;;;;;;;5014705;28;20095;-64
2022/05/01 04:39:48;;;;;;;25.80;11.13;;;;;;;;;;5014444;28;20111;-64
2022/05/01 04:42:15;;;;;;;22.92;10.30;;;;;;;;;;4997245;28;20167;-64
2022/05/01 04:44:42;;;;;;;25.15;10.68;;;;;;;;;;5014585;28;20069;-64
2022/05/01 04:47:08;;;;;;;12.98;6.60;;;;;;;;;;5015414;28;20040;-64
2022/05/01 04:49:35;;;;;;;11.30;6.05;;;;;;;;;;5016483;28;20046;-64
2022/05/01 04:52:01;;;;;;;15.35;6.70;;;;;;;;;;5021671;28;20053;-64
2022/05/01 04:54:27;;;;;;;24.05;7.88;;;;;;;;;;5012436;28;20171;-64
2022/05/01 04:57:07;;;;;;;26.02;9.85;;;;;;;;;;5014506;28;20069;-64
2022/05/01 04:59:34;;;;;;;27.88;11.18;;;;;;;;;;5016286;28;20056;-64
2022/05/01 05:02:00;;;;;;;28.15;11.20;;;;;;;;;;5005292;28;20497;-64
2022/05/01 05:04:27;;;;;;;30.55;11.57;;;;;;;;;;5009975;28;20050;-64
2022/05/01 05:06:54;;;;;;;27.48;10.45;;;;;;;;;;5003585;28;20038;-64
2022/05/01 05:12:07;;;;;;;24.48;11.98;;;;;;;;;;5010256;28;20049;-64
2022/05/01 05:14:33;;;;;;;28.33;13.75;;;;;;;;;;5012333;28;20046;-64
2022/05/01 05:17:00;;;;;;;31.33;14.93;;;;;;;;;;5014876;28;20084;-64
2022/05/01 05:19:27;;;;;;;41.63;15.50;;;;;;;;;;5016509;28;20490;-64
2022/05/01 05:21:53;;;;;;;57.10;16.67;;;;;;;;;;5014910;28;20077;-64
2022/05/01 05:24:19;;;;;;;36.42;17.25;;;;;;;;;;5012978;28;20452;-64
2022/05/01 05:26:45;;;;;;;36.53;15.98;;;;;;;;;;4997905;28;20045;-64
2022/05/01 05:29:11;;;;;;;43.10;17.58;;;;;;;;;;5013282;28;20121;-64
2022/05/01 05:31:38;;;;;;;36.00;14.70;;;;;;;;;;5010563;28;20041;-65
2022/05/01 05:34:04;;;;;;;34.22;15.57;;;;;;;;;;5008489;28;20053;-64
2022/05/01 05:36:30;;;;;;;53.58;16.58;;;;;;;;;;5015152;28;20408;-64
2022/05/01 05:38:56;;;;;;;46.10;16.73;;;;;;;;;;5024353;28;20370;-64
2022/05/01 05:41:22;;;;;;;35.65;16.00;;;;;;;;;;5013168;28;20042;-64
2022/05/01 05:43:48;;;;;;;30.95;16.52;;;;;;;;;;5013592;28;20033;-73
2022/05/01 05:46:15;;;;;;;31.42;16.92;;;;;;;;;;5013919;28;20050;-64
2022/05/01 05:48:41;;;;;;;30.27;16.17;;;;;;;;;;5009421;28;20060;-65
2022/05/01 05:51:07;;;;;;;38.67;20.20;;;;;;;;;;5017512;28;20045;-64
2022/05/01 05:53:33;;;;;;;51.45;23.40;;;;;;;;;;5019100;28;20045;-65
2022/05/01 05:55:59;;;;;;;46.63;22.90;;;;;;;;;;5023489;28;20048;-65
2022/05/01 05:58:26;;;;;;;50.05;22.05;;;;;;;;;;5023340;28;20126;-65
2022/05/01 06:00:52;;;;;;;46.15;23.38;;;;;;;;;;5008448;28;20409;-65
2022/05/01 06:03:19;;;;;;;51.65;23.58;;;;;;;;;;5014620;28;20479;-65
2022/05/01 06:05:46;;;;;;;56.90;26.73;;;;;;;;;;5018117;28;20061;-64
2022/05/01 06:08:12;;;;;;;50.65;27.67;;;;;;;;;;5020750;28;20471;-65
2022/05/01 06:10:38;;;;;;;64.20;30.58;;;;;;;;;;5010025;28;20439;-65
2022/05/01 06:13:05;;;;;;;75.38;35.38;;;;;;;;;;5016625;28;20050;-65
2022/05/01 06:15:31;;;;;;;73.97;35.47;;;;;;;;;;5010399;28;20050;-65
2022/05/01 06:17:57;;;;;;;68.97;33.05;;;;;;;;;;5016905;28;20033;-65
2022/05/01 06:20:23;;;;;;;77.78;36.22;;;;;;;;;;5008649;28;20045;-65
2022/05/01 06:22:50;;;;;;;81.22;35.15;;;;;;;;;;4985032;28;20171;-65
2022/05/01 06:25:16;;;;;;;99.07;40.03;;;;;;;;;;5018821;28;20061;-65
2022/05/01 06:27:43;;;;;;;89.63;39.95;;;;;;;;;;5009031;28;20061;-65
2022/05/01 06:30:11;;;;;;;94.00;40.95;;;;;;;;;;5003892;28;20038;-65
2022/05/01 06:32:41;;;;;;;73.60;36.30;;;;;;;;;;4994980;28;20387;-65
2022/05/01 06:35:08;;;;;;;58.95;34.08;;;;;;;;;;5018341;28;20513;-79
2022/05/01 06:37:35;;;;;;;70.45;36.67;;;;;;;;;;5019780;28;20490;-65
2022/05/01 06:40:02;;;;;;;65.45;35.25;;;;;;;;;;5006994;28;20045;-65
2022/05/01 06:42:29;;;;;;;54.72;32.42;;;;;;;;;;5014752;28;20069;-65
2022/05/01 06:44:55;;;;;;;44.88;27.80;;;;;;;;;;5021218;28;20041;-65
2022/05/01 06:47:21;;;;;;;40.20;24.38;;;;;;;;;;5010962;28;20042;-65
2022/05/01 06:49:47;;;;;;;41.75;25.52;;;;;;;;;;5019535;28;20049;-65
2022/05/01 06:52:14;;;;;;;37.55;24.17;;;;;;;;;;5016800;28;20042;-65
2022/05/01 06:54:40;;;;;;;29.13;20.77;;;;;;;;;;5019509;28;20490;-65
2022/05/01 06:57:06;;;;;;;25.05;18.70;;;;;;;;;;4997244;28;20484;-65
2022/05/01 06:59:32;;;;;;;21.50;16.15;;;;;;;;;;5017379;28;20099;-65
2022/05/01 07:01:58;;;;;;;15.82;11.30;;;;;;;;;;5016281;28;20056;-65
2022/05/01 07:04:25;;;;;;;13.35;10.13;;;;;;;;;;5022033;28;20043;-65
2022/05/01 07:06:51;;;;;;;14.05;11.07;;;;;;;;;;5019784;28;20049;-65
2022/05/01 07:09:17;;;;;;;14.55;8.88;;;;;;;;;;5001406;28;20100;-65
2022/05/01 07:11:43;;;;;;;13.52;9.07;;;;;;;;;;5005004;28;20057;-65
2022/05/01 07:14:09;;;;;;;11.73;9.35;;;;;;;;;;5005891;28;20042;-65
2022/05/01 07:16:35;;;;;;;14.15;8.93;;;;;;;;;;5019415;28;20045;-65
2022/05/01 07:19:01;;;;;;;13.25;9.10;;;;;;;;;;5018441;28;20050;-65
2022/05/01 07:21:28;;;;;;;14.30;10.15;;;;;;;;;;5021018;28;20037;-65
2022/05/01 07:23:54;;;;;;;13.93;9.38;;;;;;;;;;5016614;28;20173;-65
2022/05/01 07:26:20;;;;;;;15.65;11.98;;;;;;;;;;5021565;28;20053;-65
2022/05/01 07:28:46;;;;;;;12.07;7.95;;;;;;;;;;5018850;28;20063;-65
2022/05/01 07:31:12;;;;;;;12.70;7.53;;;;;;;;;;5014020;28;20077;-65
2022/05/01 07:33:39;;;;;;;10.63;7.25;;;;;;;;;;5019484;28;20564;-65
2022/05/01 07:36:05;;;;;;;14.30;7.97;;;;;;;;;;5018080;28;20604;-65
2022/05/01 07:38:31;;;;;;;11.77;8.00;;;;;;;;;;5020849;28;20116;-65
2022/05/01 07:40:57;;;;;;;18.45;9.02;;;;;;;;;;5021263;28;20046;-65
2022/05/01 07:43:24;;;;;;;13.63;8.50;;;;;;;;;;5025800;28;20041;-65
2022/05/01 07:45:50;;;;;;;11.15;7.78;;;;;;;;;;4999215;28;20049;-66
2022/05/01 07:48:16;;;;;;;12.60;9.13;;;;;;;;;;5015823;28;20049;-66
2022/05/01 07:50:42;;;;;;;13.68;10.02;;;;;;;;;;5016641;28;20532;-74
2022/05/01 07:53:08;;;;;;;15.15;9.40;;;;;;;;;;5016015;28;20569;-66
2022/05/01 07:55:35;;;;;;;15.18;9.30;;;;;;;;;;5018131;28;20180;-66
2022/05/01 07:58:01;;;;;;;13.40;8.40;;;;;;;;;;5023575;28;20050;-66
2022/05/01 08:00:27;;;;;;;14.70;8.85;;;;;;;;;;5012511;28;20046;-65
2022/05/01 08:05:40;;;;;;;9.15;6.65;;;;;;;;;;5005893;28;20056;-66
2022/05/01 08:08:07;;;;;;;10.88;6.53;;;;;;;;;;5018138;28;20038;-66
2022/05/01 08:10:34;;;;;;;10.25;6.55;;;;;;;;;;5015716;28;20089;-66
2022/05/01 08:13:00;;;;;;;9.88;5.95;;;;;;;;;;5021036;28;20136;-66
2022/05/01 08:15:26;;;;;;;8.50;5.43;;;;;;;;;;5023688;28;20037;-66
2022/05/01 08:17:52;;;;;;;10.60;6.47;;;;;;;;;;5001657;28;20444;-66
2022/05/01 08:23:04;;;;;;;8.52;5.47;;;;;;;;;;5008606;28;20504;-66
2022/05/01 08:25:30;;;;;;;9.63;5.00;;;;;;;;;;5003281;28;20140;-66
2022/05/01 08:27:56;;;;;;;7.90;4.85;;;;;;;;;;5020590;28;20110;-64
2022/05/01 08:30:22;;;;;;;7.30;4.68;;;;;;;;;;5017695;28;20042;-66
2022/05/01 08:32:49;;;;;;;7.82;4.47;;;;;;;;;;5019270;28;20042;-66
2022/05/01 08:35:15;;;;;;;8.45;4.75;;;;;;;;;;4999762;28;20049;-66
2022/05/01 08:37:41;;;;;;;16.30;6.45;;;;;;;;;;5013414;28;20096;-75
2022/05/01 08:40:08;;;;;;;10.35;6.28;;;;;;;;;;4984718;28;20499;-78
2022/05/01 08:42:36;;;;;;;8.93;6.40;;;;;;;;;;5020610;28;20037;-65
2022/05/01 08:45:03;;;;;;;11.80;7.10;;;;;;;;;;5013962;28;20083;-65
2022/05/01 08:47:36;;;;;;;9.75;6.20;;;;;;;;;;5026829;28;20041;-65
2022/05/01 08:50:02;;;;;;;9.87;6.23;;;;;;;;;;5019904;28;20401;-65
2022/05/01 08:52:29;;;;;;;12.68;7.00;;;;;;;;;;5021970;28;20045;-65
2022/05/01 08:54:56;;;;;;;7.93;5.88;;;;;;;;;;5015927;28;20069;-65
2022/05/01 08:57:23;;;;;;;8.70;5.40;;;;;;;;;;4999952;28;20049;-65
2022/05/01 08:59:53;;;;;;;10.18;6.32;;;;;;;;;;5000459;28;20661;-65
2022/05/01 09:02:19;;;;;;;14.25;5.85;;;;;;;;;;5021723;28;20045;-65
2022/05/01 09:04:46;;;;;;;7.57;5.50;;;;;;;;;;5020149;28;20075;-65
2022/05/01 09:07:13;;;;;;;9.30;5.85;;;;;;;;;;5019467;28;20089;-65
2022/05/01 09:09:39;;;;;;;11.65;5.95;;;;;;;;;;5021263;28;20584;-65
2022/05/01 09:15:02;;;;;;;11.25;5.55;;;;;;;;;;5015160;28;20080;-65
2022/05/01 09:17:28;;;;;;;7.90;5.68;;;;;;;;;;5014724;28;20057;-65
2022/05/01 09:20:05;;;;;;;9.43;5.63;;;;;;;;;;5015515;28;20034;-65
2022/05/01 09:22:46;;;;;;;10.32;6.28;;;;;;;;;;4997840;28;20084;-65
2022/05/01 09:25:22;;;;;;;10.07;5.05;;;;;;;;;;5017441;28;20452;-65
2022/05/01 09:27:49;;;;;;;8.90;5.78;;;;;;;;;;5017551;28;20843;-65
2022/05/01 09:30:19;;;;;;;7.85;5.18;;;;;;;;;;5018319;28;20049;-65
2022/05/01 09:32:46;;;;;;;7.38;5.03;;;;;;;;;;5005707;28;20056;-65
2022/05/01 09:35:15;;;;;;;8.82;5.18;;;;;;;;;;5016587;28;20117;-65
2022/05/01 09:37:42;;;;;;;6.60;4.40;;;;;;;;;;5019356;28;20048;-65
2022/05/01 09:40:08;;;;;;;8.15;4.80;;;;;;;;;;5017926;28;20038;-65
2022/05/01 09:42:35;;;;;;;9.10;5.22;;;;;;;;;;5022110;28;20037;-66
2022/05/01 09:45:09;;;;;;;12.65;5.25;;;;;;;;;;5018585;28;20108;-65
2022/05/01 09:47:36;;;;;;;10.45;5.45;;;;;;;;;;5022526;28;20041;-65
2022/05/01 09:50:04;;;;;;;10.60;5.97;;;;;;;;;;5021785;28;20065;-65
2022/05/01 09:52:49;;;;;;;8.65;5.50;;;;;;;;;;5023008;28;20051;-65
2022/05/01 09:55:16;;;;;;;7.88;5.50;;;;;;;;;;5022470;28;20045;-65
2022/05/01 09:57:42;;;;;;;10.32;5.35;;;;;;;;;;5005552;28;20042;-65
2022/05/01 10:00:08;;;;;;;10.15;5.22;;;;;;;;;;5024101;28;20112;-66
2022/05/01 10:02:34;;;;;;;8.73;5.57;;;;;;;;;;5022445;28;20033;-65
2022/05/01 10:05:03;;;;;;;11.30;6.43;;;;;;;;;;5022353;28;20093;-65
2022/05/01 10:07:35;;;;;;;10.73;5.30;;;;;;;;;;5022002;28;20112;-65
2022/05/01 10:10:02;;;;;;;10.02;5.50;;;;;;;;;;5017835;28;20065;-65
2022/05/01 10:12:28;;;;;;;7.57;5.57;;;;;;;;;;5017224;28;20081;-65
2022/05/01 10:14:55;;;;;;;6.97;4.95;;;;;;;;;;5009759;28;20048;-65
2022/05/01 10:17:21;;;;;;;9.02;5.55;;;;;;;;;;5019339;28;20041;-66
2022/05/01 10:19:49;;;;;;;6.75;5.45;;;;;;;;;;5016741;28;20431;-66
2022/05/01 10:22:17;;;;;;;8.60;6.18;;;;;;;;;;5020116;28;20111;-65
2022/05/01 10:24:44;;;;;;;7.45;4.88;;;;;;;;;;5020755;28;20037;-66
2022/05/01 10:27:15;;;;;;;9.13;5.90;;;;;;;;;;5021834;28;20105;-65
2022/05/01 10:32:48;;;;;;;7.67;5.03;;;;;;;;;;4981421;28;20133;-69
2022/05/01 10:35:25;;;;;;;9.15;5.40;;;;;;;;;;4984562;28;20054;-72
2022/05/01 10:38:10;;;;;;;7.10;5.32;;;;;;;;;;4996012;28;20116;-65
2022/05/01 10:40:41;;;;;;;8.75;5.90;;;;;;;;;;4996102;28;20133;-76
2022/05/01 10:43:22;;;;;;;8.07;5.03;;;;;;;;;;4971294;28;20055;-66
2022/05/01 10:45:50;;;;;;;7.65;4.85;;;;;;;;;;4982459;28;20050;-65
2022/05/01 10:48:28;;;;;;;7.25;5.00;;;;;;;;;;4998425;28;20475;-66
2022/05/01 10:50:54;;;;;;;11.48;6.10;;;;;;;;;;4988351;28;20038;-66
2022/05/01 10:53:21;;;;;;;12.35;5.82;;;;;;;;;;4994582;28;20046;-66
2022/05/01 10:55:48;;;;;;;8.02;5.55;;;;;;;;;;4995161;28;20061;-66
2022/05/01 10:58:22;;;;;;;7.60;5.30;;;;;;;;;;4994308;28;20038;-66
2022/05/01 11:00:49;;;;;;;10.05;5.22;;;;;;;;;;4995630;28;20046;-66
2022/05/01 11:03:22;;;;;;;8.45;4.65;;;;;;;;;;4994196;28;20054;-66
2022/05/01 11:05:55;;;;;;;10.68;5.30;;;;;;;;;;4981409;28;20093;-83
2022/05/01 11:08:24;;;;;;;8.65;5.03;;;;;;;;;;5001611;28;20050;-66
2022/05/01 11:10:51;;;;;;;5.95;4.10;;;;;;;;;;5001707;28;20042;-66
2022/05/01 11:13:18;;;;;;;5.85;3.95;;;;;;;;;;5000784;28;20042;-66
2022/05/01 11:15:47;;;;;;;10.13;4.63;;;;;;;;;;4995392;28;20042;-66
2022/05/01 11:18:13;;;;;;;7.38;4.45;;;;;;;;;;4995029;28;20054;-66
2022/05/01 11:20:40;;;;;;;7.38;4.25;;;;;;;;;;4985265;28;20045;-66
2022/05/01 11:23:25;;;;;;;7.10;4.55;;;;;;;;;;4988221;28;20120;-65
2022/05/01 11:26:04;;;;;;;6.53;3.90;;;;;;;;;;4998424;28;20042;-65
2022/05/01 11:28:42;;;;;;;6.25;3.88;;;;;;;;;;5003153;28;20063;-65
2022/05/01 11:31:27;;;;;;;7.60;4.65;;;;;;;;;;4994987;28;20139;-65
2022/05/01 11:34:12;;;;;;;6.13;4.38;;;;;;;;;;5003244;28;20072;-66
2022/05/01 11:36:53;;;;;;;9.88;4.47;;;;;;;;;;5019164;28;20037;-65
2022/05/01 11:39:23;;;;;;;216.70;37.90;;;;;;;;;;5019527;28;20053;-65
2022/05/01 11:42:02;;;;;;;91.43;16.00;;;;;;;;;;5006224;28;20073;-66
2022/05/01 11:44:30;;;;;;;94.70;18.90;;;;;;;;;;5024538;28;20049;-65
2022/05/01 11:46:58;;;;;;;30.17;5.93;;;;;;;;;;5022924;28;20109;-65
2022/05/01 11:49:24;;;;;;;8.07;4.40;;;;;;;;;;5017790;28;20056;-66
2022/05/01 11:51:52;;;;;;;7.45;4.47;;;;;;;;;;5001971;28;20041;-66
2022/05/01 11:54:19;;;;;;;9.27;3.97;;;;;;;;;;5016663;28;20133;-65
2022/05/01 12:02:25;;;;;;;8.00;3.80;;;;;;;;;;5020345;28;20489;-65
2022/05/01 12:04:51;;;;;;;5.55;3.42;;;;;;;;;;5026007;28;20128;-66
2022/05/01 12:07:18;;;;;;;8.43;4.43;;;;;;;;;;4986868;28;20049;-65
2022/05/01 12:09:46;;;;;;;7.28;3.55;;;;;;;;;;5022239;28;20046;-65
2022/05/01 12:12:14;;;;;;;7.57;3.75;;;;;;;;;;5021846;28;20065;-65
2022/05/01 12:14:41;;;;;;;5.35;3.40;;;;;;;;;;5002100;28;20042;-66
2022/05/01 12:17:08;;;;;;;6.53;4.30;;;;;;;;;;5005986;28;20136;-66
2022/05/01 12:19:35;;;;;;;7.57;4.55;;;;;;;;;;5028109;28;20120;-66
2022/05/01 12:22:02;;;;;;;5.90;3.65;;;;;;;;;;5020759;28;20104;-66
2022/05/01 12:24:28;;;;;;;6.07;3.92;;;;;;;;;;5021117;28;20532;-65
2022/05/01 12:26:54;;;;;;;6.88;3.88;;;;;;;;;;5019211;28;20401;-66
2022/05/01 12:29:21;;;;;;;6.80;4.07;;;;;;;;;;5021292;28;20376;-65
2022/05/01 12:31:56;;;;;;;22.67;4.85;;;;;;;;;;5016562;28;20177;-66
2022/05/01 12:34:24;;;;;;;6.15;3.45;;;;;;;;;;5009358;28;20107;-65
2022/05/01 12:36:54;;;;;;;6.57;3.65;;;;;;;;;;5011747;28;20419;-66
2022/05/01 12:39:22;;;;;;;6.20;3.40;;;;;;;;;;5023041;28;20057;-66
2022/05/01 12:45:04;;;;;;;5.15;3.40;;;;;;;;;;5017701;28;20049;-65
2022/05/01 12:47:31;;;;;;;7.05;3.60;;;;;;;;;;5000539;28;20046;-66
2022/05/01 12:49:57;;;;;;;5.07;3.40;;;;;;;;;;5017062;28;20463;-65
2022/05/01 12:52:31;;;;;;;6.22;3.42;;;;;;;;;;5017111;28;20049;-66
2022/05/01 12:55:04;;;;;;;8.98;3.90;;;;;;;;;;5007843;28;20128;-65
2022/05/01 12:57:31;;;;;;;6.47;3.30;;;;;;;;;;5010491;28;20037;-66
2022/05/01 12:59:58;;;;;;;4.63;3.35;;;;;;;;;;5021702;28;20037;-65
2022/05/01 13:02:24;;;;;;;5.18;3.70;;;;;;;;;;5013856;28;20111;-65
2022/05/01 13:04:57;;;;;;;8.02;3.40;;;;;;;;;;5012239;28;20037;-65
2022/05/01 13:07:31;;;;;;;7.07;3.33;;;;;;;;;;5013667;28;20508;-65
2022/05/01 13:09:57;;;;;;;7.10;3.25;;;;;;;;;;5004885;28;20058;-65
2022/05/01 13:12:30;;;;;;;5.18;3.22;;;;;;;;;;5006358;28;20042;-64
2022/05/01 13:15:02;;;;;;;6.10;3.70;;;;;;;;;;5011060;28;20077;-65
2022/05/01 13:17:29;;;;;;;4.70;3.50;;;;;;;;;;5021233;28;20041;-66
2022/05/01 13:19:56;;;;;;;5.15;3.53;;;;;;;;;;5011623;28;20060;-65
2022/05/01 13:22:22;;;;;;;7.63;3.72;;;;;;;;;;5021194;28;20045;-65
2022/05/01 13:24:52;;;;;;;5.32;3.00;;;;;;;;;;5011969;28;20136;-65
2022/05/01 13:27:19;;;;;;;6.00;3.38;;;;;;;;;;5028883;28;20053;-65
2022/05/01 13:29:45;;;;;;;4.68;3.25;;;;;;;;;;5015833;28;20042;-65
2022/05/01 13:32:14;;;;;;;5.85;3.22;;;;;;;;;;4997940;28;20050;-65
2022/05/01 13:34:46;;;;;;;6.97;3.40;;;;;;;;;;4995044;28;20528;-65
2022/05/01 13:37:13;;;;;;;5.70;3.03;;;;;;;;;;5009895;28;20176;-65
2022/05/01 13:45:09;;;;;;;4.45;2.70;;;;;;;;;;5012596;28;20045;-66
2022/05/01 13:47:37;;;;;;;4.70;2.85;;;;;;;;;;4999859;28;20147;-66
2022/05/01 13:50:04;;;;;;;4.47;2.45;;;;;;;;;;5015270;28;20540;-66
2022/05/01 13:52:30;;;;;;;4.18;2.20;;;;;;;;;;5015519;28;20470;-66
2022/05/01 13:54:57;;;;;;;5.20;2.40;;;;;;;;;;5028676;28;20052;-66
2022/05/01 13:57:24;;;;;;;4.53;2.55;;;;;;;;;;5033779;28;20045;-66
2022/05/01 13:59:50;;;;;;;4.30;2.75;;;;;;;;;;5017920;28;20103;-66
2022/05/01 14:02:16;;;;;;;5.05;2.47;;;;;;;;;;5027125;28;20045;-66
2022/05/01 14:04:45;;;;;;;4.25;2.25;;;;;;;;;;5000786;28;20050;-66
2022/05/01 14:07:11;;;;;;;5.18;2.70;;;;;;;;;;5013182;28;20072;-66
2022/05/01 14:09:37;;;;;;;5.47;2.65;;;;;;;;;;5004599;28;20472;-65
2022/05/01 14:12:05;;;;;;;4.88;2.47;;;;;;;;;;5013882;28;20067;-66
2022/05/01 14:14:31;;;;;;;5.15;2.65;;;;;;;;;;5000315;28;20056;-66
2022/05/01 14:16:57;;;;;;;7.40;3.28;;;;;;;;;;5032655;28;20049;-66
2022/05/01 14:19:26;;;;;;;6.72;3.80;;;;;;;;;;5027813;28;20038;-66
2022/05/01 14:21:55;;;;;;;7.55;3.75;;;;;;;;;;5013330;28;20050;-65
2022/05/01 14:24:22;;;;;;;7.57;4.35;;;;;;;;;;5014953;28;20547;-66
2022/05/01 14:26:48;;;;;;;7.93;4.10;;;;;;;;;;5018733;28;20111;-65
2022/05/01 14:29:14;;;;;;;6.82;3.97;;;;;;;;;;5007179;28;20049;-65
2022/05/01 14:31:47;;;;;;;18.70;5.22;;;;;;;;;;5009389;28;20494;-65
2022/05/01 14:34:23;;;;;;;19.30;5.75;;;;;;;;;;4997619;28;20497;-65
2022/05/01 14:36:51;;;;;;;7.75;4.38;;;;;;;;;;5032299;28;20041;-66
2022/05/01 14:39:18;;;;;;;10.20;4.97;;;;;;;;;;5028412;28;20053;-65
2022/05/01 14:41:49;;;;;;;11.07;4.75;;;;;;;;;;5015382;28;20050;-66
2022/05/01 14:44:16;;;;;;;7.32;4.28;;;;;;;;;;5017559;28;20436;-65
2022/05/01 14:46:50;;;;;;;7.20;4.68;;;;;;;;;;5026428;28;20041;-66
2022/05/01 14:49:25;;;;;;;7.10;4.32;;;;;;;;;;5015044;28;20507;-65
2022/05/01 14:51:59;;;;;;;7.05;4.40;;;;;;;;;;5025681;28;20088;-65
2022/05/01 14:54:28;;;;;;;7.50;3.88;;;;;;;;;;4997000;28;20389;-65
2022/05/01 14:56:57;;;;;;;6.50;4.05;;;;;;;;;;5029490;28;20033;-65
2022/05/01 15:07:40;;;;;;;5.63;3.60;;;;;;;;;;5009451;28;20064;-65
2022/05/01 15:10:09;;;;;;;6.60;4.13;;;;;;;;;;5024058;28;20045;-65
2022/05/01 15:12:35;;;;;;;7.75;3.97;;;;;;;;;;5007544;28;20061;-65
2022/05/01 15:15:01;;;;;;;8.00;4.10;;;;;;;;;;4996148;28;20137;-65
2022/05/01 15:17:31;;;;;;;7.55;3.50;;;;;;;;;;5014811;28;20045;-65
2022/05/01 15:20:17;;;;;;;6.72;3.00;;;;;;;;;;5013171;28;20125;-65
2022/05/01 15:22:56;;;;;;;8.95;3.88;;;;;;;;;;5001461;28;20458;-65
2022/05/01 15:25:26;;;;;;;6.13;3.70;;;;;;;;;;5013760;28;20042;-65
2022/05/01 15:27:59;;;;;;;6.20;3.88;;;;;;;;;;5012762;28;20042;-65